createdAt,value
2018-06-05T00:02:11.197Z,9.87
2018-06-05T00:04:39.914Z,10.33
2018-06-05T00:07:08.244Z,9.77
2018-06-05T00:09:36.586Z,10.00
2018-06-05T00:12:04.901Z,9.47
2018-06-05T00:14:33.492Z,8.83
2018-06-05T00:17:01.993Z,9.27
2018-06-05T00:19:30.297Z,8.53
2018-06-05T00:21:58.637Z,8.43
2018-06-05T00:24:26.978Z,8.00
2018-06-05T00:26:55.369Z,8.40
2018-06-05T00:29:24.369Z,8.10
2018-06-05T00:31:52.824Z,8.23
2018-06-05T00:34:21.272Z,7.70
2018-06-05T00:36:49.664Z,8.20
2018-06-05T00:39:18.043Z,7.27
2018-06-05T00:41:46.388Z,9.03
2018-06-05T00:44:14.704Z,7.67
2018-06-05T00:46:43.042Z,8.87
2018-06-05T00:49:11.494Z,7.30
2018-06-05T00:51:51.192Z,7.73
2018-06-05T00:54:19.493Z,7.33
2018-06-05T00:56:48.051Z,8.03
2018-06-05T00:59:16.361Z,7.53
2018-06-05T01:01:44.816Z,9.50
2018-06-05T01:04:13.263Z,6.87
2018-06-05T01:06:41.570Z,6.77
2018-06-05T01:09:09.905Z,7.27
2018-06-05T01:11:38.222Z,7.30
2018-06-05T01:14:06.509Z,7.33
2018-06-05T01:16:34.893Z,7.80
2018-06-05T01:19:03.184Z,8.93
2018-06-05T01:21:31.457Z,7.20
2018-06-05T01:23:59.748Z,6.73
2018-06-05T01:26:28.034Z,8.97
2018-06-05T01:28:56.376Z,8.33
2018-06-05T01:31:25.641Z,7.67
2018-06-05T01:33:53.950Z,6.43
2018-06-05T01:36:22.236Z,7.10
2018-06-05T01:38:50.534Z,7.37
2018-06-05T01:41:18.828Z,6.33
2018-06-05T01:43:47.186Z,6.83
2018-06-05T01:46:15.489Z,7.83
2018-06-05T01:48:43.777Z,9.47
2018-06-05T01:51:12.110Z,6.50
2018-06-05T01:53:40.449Z,6.67
2018-06-05T01:56:08.754Z,6.30
2018-06-05T01:58:37.082Z,6.97
2018-06-05T02:01:05.458Z,5.97
2018-06-05T02:03:33.797Z,7.03
2018-06-05T02:06:02.121Z,6.00
2018-06-05T02:08:30.466Z,6.43
2018-06-05T02:10:58.815Z,7.17
2018-06-05T02:13:27.145Z,5.87
2018-06-05T02:15:55.476Z,5.83
2018-06-05T02:18:23.822Z,5.57
2018-06-05T02:20:52.152Z,5.87
2018-06-05T02:23:20.493Z,6.03
2018-06-05T02:25:48.785Z,5.97
2018-06-05T02:28:17.088Z,6.77
2018-06-05T02:30:45.415Z,6.33
2018-06-05T02:33:13.699Z,6.00
2018-06-05T02:35:42.056Z,7.00
2018-06-05T02:38:10.655Z,6.27
2018-06-05T02:40:39.115Z,8.33
2018-06-05T02:43:08.317Z,6.77
2018-06-05T02:45:37.443Z,6.37
2018-06-05T02:48:05.911Z,7.00
2018-06-05T02:50:34.256Z,6.43
2018-06-05T02:53:03.252Z,6.63
2018-06-05T02:55:31.630Z,7.63
2018-06-05T02:58:00.192Z,5.70
2018-06-05T03:00:28.861Z,7.30
2018-06-05T03:02:58.177Z,8.23
2018-06-05T03:05:26.528Z,6.87
2018-06-05T03:07:54.814Z,6.60
2018-06-05T03:10:23.115Z,6.83
2018-06-05T03:12:51.442Z,6.63
2018-06-05T03:15:19.750Z,7.03
2018-06-05T03:17:47.764Z,6.67
2018-06-05T03:20:16.032Z,6.43
2018-06-05T03:22:44.372Z,7.10
2018-06-05T03:25:12.732Z,6.93
2018-06-05T03:27:41.538Z,8.07
2018-06-05T03:30:09.946Z,7.03
2018-06-05T03:32:38.294Z,7.13
2018-06-05T03:35:06.785Z,7.07
2018-06-05T03:37:35.160Z,6.63
2018-06-05T03:40:03.570Z,7.80
2018-06-05T03:42:31.949Z,6.83
2018-06-05T03:45:00.261Z,6.30
2018-06-05T03:47:28.700Z,7.27
2018-06-05T03:49:56.996Z,6.67
2018-06-05T03:52:25.463Z,6.63
2018-06-05T03:54:53.745Z,6.50
2018-06-05T03:57:22.072Z,6.00
2018-06-05T03:59:50.454Z,7.00
2018-06-05T04:02:18.802Z,6.53
2018-06-05T04:04:47.122Z,5.50
2018-06-05T04:07:15.462Z,5.70
2018-06-05T04:09:43.817Z,5.43
2018-06-05T04:12:12.165Z,5.97
2018-06-05T04:14:40.577Z,6.17
2018-06-05T04:17:08.930Z,5.40
2018-06-05T04:19:37.265Z,7.00
2018-06-05T04:22:05.646Z,8.47
2018-06-05T04:24:33.997Z,7.50
2018-06-05T04:27:02.380Z,5.87
2018-06-05T04:29:30.723Z,5.40
2018-06-05T04:31:59.113Z,7.30
2018-06-05T04:34:27.395Z,5.37
2018-06-05T04:36:56.036Z,5.23
2018-06-05T04:39:24.776Z,7.63
2018-06-05T04:41:53.070Z,6.50
2018-06-05T04:44:21.593Z,5.17
2018-06-05T04:46:49.888Z,6.40
2018-06-05T04:49:18.210Z,5.10
2018-06-05T04:51:46.511Z,4.40
2018-06-05T04:54:14.795Z,4.63
2018-06-05T04:56:43.094Z,6.27
2018-06-05T04:59:11.415Z,4.60
2018-06-05T05:01:39.730Z,7.27
2018-06-05T05:04:08.043Z,4.87
2018-06-05T05:06:36.346Z,5.37
2018-06-05T05:09:06.414Z,5.20
2018-06-05T05:11:34.726Z,4.83
2018-06-05T05:14:03.184Z,4.87
2018-06-05T05:16:31.767Z,5.70
2018-06-05T05:19:00.245Z,5.13
2018-06-05T05:21:28.685Z,7.47
2018-06-05T05:23:57.099Z,5.40
2018-06-05T05:26:25.580Z,6.53
2018-06-05T05:28:54.066Z,6.07
2018-06-05T05:31:22.511Z,4.90
2018-06-05T05:33:50.991Z,5.07
2018-06-05T05:36:19.551Z,5.40
2018-06-05T05:38:48.033Z,5.57
2018-06-05T05:41:16.541Z,4.77
2018-06-05T05:43:44.850Z,4.73
2018-06-05T05:46:13.357Z,7.93
2018-06-05T05:48:41.771Z,5.10
2018-06-05T05:51:10.155Z,4.33
2018-06-05T05:53:38.544Z,5.23
2018-06-05T05:56:07.056Z,5.67
2018-06-05T05:58:35.394Z,5.00
2018-06-05T06:01:03.904Z,7.53
2018-06-05T06:03:32.425Z,6.70
2018-06-05T06:06:00.851Z,6.53
2018-06-05T06:08:29.216Z,6.53
2018-06-05T06:10:57.627Z,6.27
2018-06-05T06:13:25.941Z,6.27
2018-06-05T06:15:54.309Z,5.90
2018-06-05T06:18:22.753Z,5.63
2018-06-05T06:20:51.387Z,5.90
2018-06-05T06:23:19.970Z,5.80
2018-06-05T06:25:48.273Z,8.53
2018-06-05T06:28:16.611Z,6.57
2018-06-05T06:30:44.914Z,6.50
2018-06-05T06:33:13.471Z,5.47
2018-06-05T06:35:41.790Z,6.00
2018-06-05T06:38:10.166Z,6.07
2018-06-05T06:40:38.449Z,5.47
2018-06-05T06:43:06.854Z,5.47
2018-06-05T06:45:35.301Z,6.60
2018-06-05T06:48:03.617Z,6.63
2018-06-05T06:50:31.894Z,5.83
2018-06-05T06:53:00.199Z,8.10
2018-06-05T06:55:28.573Z,7.57
2018-06-05T06:57:57.007Z,7.80
2018-06-05T07:00:25.444Z,6.67
2018-06-05T07:02:53.733Z,7.67
2018-06-05T07:05:22.101Z,6.90
2018-06-05T07:07:50.493Z,7.37
2018-06-05T07:10:18.894Z,6.70
2018-06-05T07:12:47.266Z,7.20
2018-06-05T07:15:16.528Z,6.77
2018-06-05T07:17:44.828Z,6.13
2018-06-05T07:20:13.447Z,6.80
2018-06-05T07:22:41.737Z,6.60
2018-06-05T07:25:10.023Z,6.47
2018-06-05T07:27:38.328Z,6.23
2018-06-05T07:30:06.651Z,7.40
2018-06-05T07:32:34.926Z,7.13
2018-06-05T07:35:03.233Z,7.00
2018-06-05T07:37:31.543Z,6.83
2018-06-05T07:40:00.122Z,7.53
2018-06-05T07:42:28.428Z,6.93
2018-06-05T07:44:56.707Z,8.63
2018-06-05T07:47:25.014Z,8.90
2018-06-05T07:49:53.318Z,8.57
2018-06-05T07:52:21.636Z,6.63
2018-06-05T07:54:49.929Z,8.57
2018-06-05T07:57:18.325Z,9.13
2018-06-05T07:59:46.685Z,8.23
2018-06-05T08:02:14.994Z,6.90
2018-06-05T08:04:43.293Z,7.27
2018-06-05T08:07:11.633Z,9.13
2018-06-05T08:09:39.928Z,7.70
2018-06-05T08:12:08.208Z,8.07
2018-06-05T08:14:36.502Z,9.07
2018-06-05T08:17:04.861Z,10.37
2018-06-05T08:19:33.151Z,7.20
2018-06-05T08:22:01.476Z,7.20
2018-06-05T08:24:29.819Z,9.07
2018-06-05T08:26:58.085Z,9.43
2018-06-05T08:29:26.370Z,7.53
2018-06-05T08:31:54.664Z,7.53
2018-06-05T08:34:22.977Z,6.80
2018-06-05T08:36:51.300Z,9.17
2018-06-05T08:39:19.589Z,7.63
2018-06-05T08:41:47.946Z,10.13
2018-06-05T08:44:16.233Z,7.63
2018-06-05T08:46:44.532Z,6.93
2018-06-05T08:49:12.817Z,10.07
2018-06-05T08:51:41.122Z,10.43
2018-06-05T08:54:09.456Z,9.03
2018-06-05T08:56:37.750Z,7.57
2018-06-05T08:59:06.132Z,6.63
2018-06-05T09:01:34.456Z,8.63
2018-06-05T09:04:02.761Z,8.60
2018-06-05T09:06:31.234Z,9.23
2018-06-05T09:08:59.534Z,8.10
2018-06-05T09:11:27.848Z,9.23
2018-06-05T09:13:56.263Z,8.97
2018-06-05T09:16:24.538Z,8.93
2018-06-05T09:18:52.840Z,10.43
2018-06-05T09:21:21.132Z,9.30
2018-06-05T09:23:49.445Z,8.43
2018-06-05T09:26:17.733Z,8.80
2018-06-05T09:28:46.102Z,7.47
2018-06-05T09:31:14.389Z,8.43
2018-06-05T09:33:42.693Z,7.50
2018-06-05T09:36:11.063Z,7.87
2018-06-05T09:38:39.381Z,9.07
2018-06-05T09:41:07.673Z,6.77
2018-06-05T09:43:35.977Z,11.07
2018-06-05T09:46:04.290Z,8.43
2018-06-05T09:48:32.662Z,9.43
2018-06-05T09:51:00.973Z,8.43
2018-06-05T09:53:29.302Z,9.50
2018-06-05T09:55:57.694Z,8.30
2018-06-05T09:58:26.109Z,8.70
2018-06-05T10:00:54.283Z,8.70
2018-06-05T10:03:22.638Z,8.27
2018-06-05T10:05:50.993Z,10.37
2018-06-05T10:08:19.339Z,8.20
2018-06-05T10:10:47.738Z,8.53
2018-06-05T10:13:16.156Z,7.70
2018-06-05T10:15:44.415Z,7.30
2018-06-05T10:18:12.753Z,10.00
2018-06-05T10:20:41.057Z,7.97
2018-06-05T10:23:09.336Z,7.93
2018-06-05T10:25:37.877Z,8.87
2018-06-05T10:28:06.389Z,7.70
2018-06-05T10:30:35.751Z,8.27
2018-06-05T10:33:04.069Z,8.13
2018-06-05T10:35:32.373Z,8.33
2018-06-05T10:38:00.791Z,9.10
2018-06-05T10:40:29.256Z,6.87
2018-06-05T10:42:57.746Z,9.87
2018-06-05T10:45:26.154Z,7.27
2018-06-05T10:47:54.474Z,7.80
2018-06-05T10:50:22.803Z,7.30
2018-06-05T10:52:51.160Z,7.37
2018-06-05T10:55:19.556Z,8.80
2018-06-05T10:57:54.590Z,7.10
2018-06-05T11:00:22.948Z,6.40
2018-06-05T11:02:51.258Z,7.27
2018-06-05T11:05:19.528Z,6.40
2018-06-05T11:07:48.032Z,6.77
2018-06-05T11:10:16.464Z,6.50
2018-06-05T11:12:44.867Z,6.70
2018-06-05T11:15:13.180Z,7.63
2018-06-05T11:17:41.605Z,6.93
2018-06-05T11:20:09.944Z,7.30
2018-06-05T11:22:38.234Z,7.77
2018-06-05T11:25:06.598Z,7.37
2018-06-05T11:27:35.103Z,6.80
2018-06-05T11:30:04.017Z,6.97
2018-06-05T11:32:32.299Z,11.30
2018-06-05T11:35:00.643Z,6.63
2018-06-05T11:37:29.093Z,7.27
2018-06-05T11:39:57.508Z,6.43
2018-06-05T11:42:25.927Z,6.73
2018-06-05T11:44:54.220Z,6.30
2018-06-05T11:47:22.989Z,7.00
2018-06-05T11:49:51.382Z,6.10
2018-06-05T11:52:19.692Z,6.77
2018-06-05T11:54:48.198Z,6.33
2018-06-05T11:57:16.682Z,5.70
2018-06-05T11:59:45.153Z,5.03
2018-06-05T12:02:13.692Z,6.03
2018-06-05T12:04:42.180Z,6.63
2018-06-05T12:07:10.591Z,5.53
2018-06-05T12:09:38.921Z,6.00
2018-06-05T12:12:07.412Z,6.17
2018-06-05T12:14:35.747Z,4.90
2018-06-05T12:17:04.049Z,4.50
2018-06-05T12:19:32.392Z,5.13
2018-06-05T12:22:00.776Z,4.70
2018-06-05T12:24:29.217Z,4.93
2018-06-05T12:26:57.538Z,5.27
2018-06-05T12:29:26.002Z,5.30
2018-06-05T12:31:54.397Z,5.50
2018-06-05T12:34:22.822Z,5.20
2018-06-05T12:36:51.132Z,5.90
2018-06-05T12:39:19.593Z,6.87
2018-06-05T12:41:48.069Z,5.73
2018-06-05T12:44:16.296Z,6.63
2018-06-05T12:46:44.874Z,5.30
2018-06-05T12:49:19.634Z,6.03
2018-06-05T12:51:47.985Z,7.10
2018-06-05T12:54:16.405Z,5.03
2018-06-05T12:56:44.910Z,4.53
2018-06-05T12:59:13.390Z,5.00
2018-06-05T13:01:41.754Z,5.93
2018-06-05T13:04:10.120Z,5.33
2018-06-05T13:06:39.495Z,5.80
2018-06-05T13:09:08.232Z,7.00
2018-06-05T13:11:36.649Z,6.83
2018-06-05T13:14:04.957Z,5.93
2018-06-05T13:16:33.365Z,6.53
2018-06-05T13:19:01.675Z,6.10
2018-06-05T13:21:29.977Z,6.03
2018-06-05T13:23:58.502Z,6.30
2018-06-05T13:26:26.921Z,6.60
2018-06-05T13:28:55.190Z,6.33
2018-06-05T13:31:23.597Z,6.97
2018-06-05T13:33:51.898Z,6.57
2018-06-05T13:36:20.339Z,7.50
2018-06-05T13:38:48.719Z,7.50
2018-06-05T13:41:17.166Z,7.60
2018-06-05T13:43:45.792Z,7.00
2018-06-05T13:46:14.232Z,7.07
2018-06-05T13:48:42.505Z,7.60
2018-06-05T13:51:10.873Z,9.03
2018-06-05T13:53:39.156Z,6.90
2018-06-05T13:56:07.704Z,8.20
2018-06-05T13:58:35.968Z,7.07
2018-06-05T14:01:04.302Z,6.40
2018-06-05T14:03:32.596Z,5.97
2018-06-05T14:06:00.895Z,6.40
2018-06-05T14:08:29.325Z,7.40
2018-06-05T14:10:57.620Z,7.10
2018-06-05T14:13:25.908Z,7.40
2018-06-05T14:15:54.239Z,9.33
2018-06-05T14:18:22.621Z,6.07
2018-06-05T14:20:51.233Z,6.53
2018-06-05T14:23:22.499Z,6.40
2018-06-05T14:25:50.782Z,6.70
2018-06-05T14:28:19.231Z,7.87
2018-06-05T14:30:48.356Z,7.20
2018-06-05T14:33:16.719Z,8.07
2018-06-05T14:35:45.066Z,7.73
2018-06-05T14:38:13.089Z,10.17
2018-06-05T14:40:41.500Z,7.40
2018-06-05T14:43:09.809Z,7.13
2018-06-05T14:45:38.253Z,7.50
2018-06-05T14:48:06.708Z,7.67
2018-06-05T14:50:35.332Z,7.23
2018-06-05T14:53:03.723Z,6.60
2018-06-05T14:55:32.174Z,6.57
2018-06-05T14:58:00.469Z,7.10
2018-06-05T15:00:28.766Z,7.70
2018-06-05T15:02:57.095Z,7.17
2018-06-05T15:05:25.503Z,7.30
2018-06-05T15:07:53.825Z,7.10
2018-06-05T15:10:22.108Z,7.47
2018-06-05T15:12:50.536Z,8.37
2018-06-05T15:15:18.952Z,7.40
2018-06-05T15:17:47.384Z,7.47
2018-06-05T15:20:15.811Z,7.63
2018-06-05T15:22:44.101Z,7.00
2018-06-05T15:25:12.393Z,7.17
2018-06-05T15:27:40.797Z,7.77
2018-06-05T15:30:11.216Z,7.87
2018-06-05T15:32:39.566Z,6.53
2018-06-05T15:35:07.843Z,8.43
2018-06-05T15:37:36.242Z,6.70
2018-06-05T15:40:04.660Z,7.60
2018-06-05T15:42:33.432Z,6.63
2018-06-05T15:45:02.645Z,6.83
2018-06-05T15:47:31.463Z,6.63
2018-06-05T15:49:59.850Z,7.20
2018-06-05T15:52:28.241Z,7.20
2018-06-05T15:54:56.692Z,7.67
2018-06-05T15:57:25.003Z,7.40
2018-06-05T15:59:53.304Z,7.20
2018-06-05T16:02:21.613Z,6.80
2018-06-05T16:04:50.096Z,7.17
2018-06-05T16:07:18.415Z,8.20
2018-06-05T16:09:46.854Z,7.03
2018-06-05T16:12:15.274Z,7.45
2018-06-05T16:14:43.648Z,7.08
2018-06-05T16:17:12.157Z,7.50
2018-06-05T16:19:40.448Z,7.75
2018-06-05T16:22:08.852Z,7.08
2018-06-05T16:24:37.380Z,7.28
2018-06-05T16:27:05.725Z,7.20
2018-06-05T16:29:34.151Z,7.80
2018-06-05T16:32:02.581Z,7.70
2018-06-05T16:34:30.994Z,7.35
2018-06-05T16:36:59.293Z,7.70
2018-06-05T16:39:27.777Z,8.90
2018-06-05T16:41:56.107Z,6.90
2018-06-05T16:44:24.434Z,6.72
2018-06-05T16:46:52.878Z,6.72
2018-06-05T16:49:21.524Z,7.12
2018-06-05T16:51:49.883Z,7.17
2018-06-05T16:54:18.281Z,7.40
2018-06-05T16:56:46.585Z,7.62
2018-06-05T16:59:14.961Z,8.33
2018-06-05T17:01:43.241Z,6.60
2018-06-05T17:04:11.632Z,6.58
2018-06-05T17:06:40.088Z,6.83
2018-06-05T17:09:08.402Z,8.08
2018-06-05T17:11:36.806Z,6.80
2018-06-05T17:14:05.315Z,6.90
2018-06-05T17:16:33.603Z,6.47
2018-06-05T17:19:01.932Z,6.47
2018-06-05T17:21:30.517Z,6.22
2018-06-05T17:23:58.969Z,6.30
2018-06-05T17:26:27.273Z,6.43
2018-06-05T17:28:55.596Z,7.80
2018-06-05T17:31:24.010Z,6.35
2018-06-05T17:33:52.433Z,5.90
2018-06-05T17:36:20.972Z,5.78
2018-06-05T17:38:49.276Z,6.62
2018-06-05T17:41:17.852Z,6.97
2018-06-05T17:43:46.201Z,6.80
2018-06-05T17:46:14.614Z,6.28
2018-06-05T17:48:43.039Z,6.00
2018-06-05T17:51:11.410Z,7.22
2018-06-05T17:53:39.704Z,7.70
2018-06-05T17:56:08.029Z,6.70
2018-06-05T17:58:36.346Z,5.97
2018-06-05T18:01:04.789Z,7.53
2018-06-05T18:03:33.174Z,7.20
2018-06-05T18:06:01.541Z,6.37
2018-06-05T18:08:29.842Z,6.20
2018-06-05T18:10:58.133Z,6.20
2018-06-05T18:13:26.408Z,6.60
2018-06-05T18:15:54.952Z,6.70
2018-06-05T18:18:23.588Z,5.90
2018-06-05T18:20:52.161Z,6.33
2018-06-05T18:23:20.500Z,6.53
2018-06-05T18:25:48.809Z,7.87
2018-06-05T18:28:17.265Z,6.90
2018-06-05T18:30:45.591Z,6.27
2018-06-05T18:33:13.929Z,6.93
2018-06-05T18:35:42.313Z,6.60
2018-06-05T18:38:10.601Z,5.97
2018-06-05T18:40:38.918Z,8.97
2018-06-05T18:43:07.224Z,7.27
2018-06-05T18:45:35.694Z,7.30
2018-06-05T18:48:04.201Z,6.77
2018-06-05T18:50:32.500Z,7.73
2018-06-05T18:53:00.940Z,8.13
2018-06-05T18:55:29.253Z,8.30
2018-06-05T18:57:57.549Z,6.90
2018-06-05T19:00:26.015Z,7.03
2018-06-05T19:02:54.506Z,7.47
2018-06-05T19:05:22.975Z,7.53
2018-06-05T19:07:51.467Z,8.40
2018-06-05T19:10:19.974Z,6.87
2018-06-05T19:12:48.551Z,7.33
2018-06-05T19:15:16.987Z,6.87
2018-06-05T19:17:45.368Z,7.77
2018-06-05T19:20:13.791Z,8.50
2018-06-05T19:22:42.147Z,7.07
2018-06-05T19:25:10.433Z,8.50
2018-06-05T19:27:38.938Z,7.70
2018-06-05T19:30:07.261Z,10.80
2018-06-05T19:32:35.947Z,8.00
2018-06-05T19:35:04.277Z,10.70
2018-06-05T19:37:32.610Z,7.20
2018-06-05T19:40:01.286Z,7.73
2018-06-05T19:42:29.788Z,9.80
2018-06-05T19:44:58.109Z,9.30
2018-06-05T19:47:26.413Z,7.90
2018-06-05T19:49:54.850Z,8.67
2018-06-05T19:52:23.309Z,8.47
2018-06-05T19:54:51.596Z,7.77
2018-06-05T19:57:20.059Z,10.87
2018-06-05T19:59:48.595Z,8.27
2018-06-05T20:02:16.897Z,8.47
2018-06-05T20:04:45.208Z,8.80
2018-06-05T20:07:13.670Z,8.40
2018-06-05T20:09:42.062Z,8.43
2018-06-05T20:12:10.632Z,8.97
2018-06-05T20:14:39.103Z,8.90
2018-06-05T20:17:07.409Z,8.83
2018-06-05T20:19:35.829Z,8.77
2018-06-05T20:22:04.431Z,8.60
2018-06-05T20:24:32.546Z,9.40
2018-06-05T20:27:01.017Z,9.40
2018-06-05T20:29:29.312Z,8.97
2018-06-05T20:31:57.605Z,9.27
2018-06-05T20:34:26.066Z,8.50
2018-06-05T20:36:54.418Z,9.23
2018-06-05T20:39:22.837Z,10.90
2018-06-05T20:41:51.251Z,9.90
2018-06-05T20:44:19.681Z,9.40
2018-06-05T20:46:48.021Z,8.90
2018-06-05T20:49:16.483Z,9.63
2018-06-05T20:51:44.793Z,9.77
2018-06-05T20:54:13.120Z,12.30
2018-06-05T20:56:41.412Z,11.20
2018-06-05T20:59:09.724Z,10.50
2018-06-05T21:01:38.014Z,10.30
2018-06-05T21:04:06.342Z,10.57
2018-06-05T21:06:34.641Z,11.63
2018-06-05T21:09:03.001Z,10.07
2018-06-05T21:11:31.281Z,11.30
2018-06-05T21:13:59.561Z,9.73
2018-06-05T21:16:27.853Z,9.67
2018-06-05T21:18:56.131Z,10.47
2018-06-05T21:21:24.491Z,12.33
2018-06-05T21:23:52.835Z,9.70
2018-06-05T21:26:21.132Z,9.57
2018-06-05T21:28:49.413Z,9.63
2018-06-05T21:31:17.734Z,9.83
2018-06-05T21:33:46.026Z,10.30
2018-06-05T21:36:14.302Z,10.47
2018-06-05T21:38:42.617Z,9.37
2018-06-05T21:41:10.949Z,10.60
2018-06-05T21:43:39.250Z,12.10
2018-06-05T21:46:07.546Z,10.50
2018-06-05T21:48:35.853Z,9.23
2018-06-05T21:51:04.136Z,9.83
2018-06-05T21:53:32.443Z,10.00
2018-06-05T21:56:00.765Z,9.60
2018-06-05T21:58:29.038Z,9.80
2018-06-05T22:00:57.345Z,10.23
2018-06-05T22:03:25.604Z,9.70
2018-06-05T22:05:53.891Z,10.17
2018-06-05T22:08:22.178Z,9.83
2018-06-05T22:10:50.477Z,10.83
2018-06-05T22:13:18.765Z,10.37
2018-06-05T22:15:47.074Z,11.03
2018-06-05T22:18:15.452Z,11.03
2018-06-05T22:20:43.736Z,10.60
2018-06-05T22:23:12.032Z,11.20
2018-06-05T22:25:40.406Z,13.20
2018-06-05T22:28:08.875Z,10.57
2018-06-05T22:30:37.174Z,11.03
2018-06-05T22:33:05.470Z,10.43
2018-06-05T22:35:33.770Z,10.73
2018-06-05T22:38:02.069Z,10.83
2018-06-05T22:40:30.360Z,11.13
2018-06-05T22:42:58.679Z,11.47
2018-06-05T22:45:26.977Z,10.53
2018-06-05T22:47:55.282Z,10.43
2018-06-05T22:50:23.581Z,11.30
2018-06-05T22:52:51.908Z,11.00
2018-06-05T22:55:20.325Z,11.83
2018-06-05T22:57:48.642Z,12.93
2018-06-05T23:00:22.880Z,11.70
2018-06-05T23:02:51.164Z,11.60
2018-06-05T23:05:19.465Z,13.37
2018-06-05T23:07:47.756Z,11.57
2018-06-05T23:10:16.060Z,12.03
2018-06-05T23:12:44.385Z,11.63
2018-06-05T23:15:12.693Z,13.50
2018-06-05T23:17:41.029Z,13.77
2018-06-05T23:20:09.329Z,11.47
2018-06-05T23:22:37.649Z,13.43
2018-06-05T23:25:06.011Z,11.97
2018-06-05T23:27:34.311Z,12.37
2018-06-05T23:30:02.625Z,12.63
2018-06-05T23:32:30.904Z,11.50
2018-06-05T23:34:59.214Z,11.87
2018-06-05T23:37:27.532Z,11.33
2018-06-05T23:39:55.833Z,12.00
2018-06-05T23:42:24.168Z,11.40
2018-06-05T23:44:52.479Z,12.13
2018-06-05T23:47:20.795Z,12.33
2018-06-05T23:49:49.060Z,12.07
2018-06-05T23:52:17.392Z,12.03
2018-06-05T23:54:52.068Z,12.40
2018-06-05T23:57:20.377Z,12.43
2018-06-05T23:59:48.652Z,12.40
